Time;durP1;ratioP1;P1;durP2;ratioP2;P2;SDS_P1;SDS_P2;PMS_P1;PMS_P2;Temp;Humidity;BMP_temperature;BMP_pressure;BME280_temperature;BME280_humidity;BME280_pressure;Samples;Min_cycle;Max_cycle;Signal;HPM_P1;HPM_P2
2022/12/13 00:02:12;;;;;;;22.70;12.70;;;-6.10;99.90;;;;;;5018886;28;20466;-50
2022/12/13 00:04:42;;;;;;;18.83;12.43;;;-6.10;99.90;;;;;;5025801;28;20496;-49
2022/12/13 00:07:09;;;;;;;18.77;11.53;;;-6.10;99.90;;;;;;5026780;28;20469;-50
2022/12/13 00:09:36;;;;;;;19.40;11.40;;;-6.10;99.90;;;;;;5029510;28;21405;-50
2022/12/13 00:12:05;;;;;;;19.63;10.73;;;-6.00;99.90;;;;;;5030636;28;20464;-50
2022/12/13 00:14:32;;;;;;;17.93;10.77;;;-6.00;99.90;;;;;;5028627;28;20469;-51
2022/12/13 00:16:59;;;;;;;23.00;11.77;;;-6.00;99.90;;;;;;5026766;28;20568;-50
2022/12/13 00:19:26;;;;;;;26.47;11.60;;;-6.00;99.90;;;;;;5028833;28;20458;-49
2022/12/13 00:21:53;;;;;;;18.53;9.87;;;-6.00;99.90;;;;;;5026127;28;21009;-50
2022/12/13 00:24:20;;;;;;;21.40;12.70;;;-6.00;99.90;;;;;;5030514;28;20455;-49
2022/12/13 00:26:47;;;;;;;27.53;14.43;;;-6.00;99.90;;;;;;5025033;28;20493;-51
2022/12/13 00:29:16;;;;;;;29.33;14.60;;;-6.00;99.90;;;;;;5028752;28;20462;-50
2022/12/13 00:31:43;;;;;;;25.67;13.93;;;-6.10;99.90;;;;;;5029636;28;20562;-50
2022/12/13 00:34:10;;;;;;;22.37;13.83;;;-6.10;99.90;;;;;;5018420;28;20955;-50
2022/12/13 00:36:37;;;;;;;25.23;13.97;;;-6.20;99.90;;;;;;5026919;28;21045;-49
2022/12/13 00:39:04;;;;;;;23.03;12.63;;;-6.20;99.90;;;;;;5029102;28;20457;-48
2022/12/13 00:41:33;;;;;;;26.00;13.90;;;-6.20;99.90;;;;;;5022563;28;20489;-50
2022/12/13 00:44:01;;;;;;;29.60;13.70;;;-6.20;99.90;;;;;;5024168;28;20462;-50
2022/12/13 00:46:30;;;;;;;20.57;12.47;;;-6.30;99.90;;;;;;5025115;28;20573;-50
2022/12/13 00:48:59;;;;;;;24.83;13.13;;;-6.30;99.90;;;;;;5026573;28;20466;-50
2022/12/13 00:51:27;;;;;;;20.37;12.30;;;-6.40;99.90;;;;;;5025307;28;20979;-50
2022/12/13 00:53:55;;;;;;;21.40;11.50;;;-6.40;99.90;;;;;;5029448;28;20461;-50
2022/12/13 00:56:24;;;;;;;22.40;11.87;;;-6.50;99.90;;;;;;5027846;28;21001;-50
2022/12/13 00:58:52;;;;;;;21.83;11.53;;;-6.50;99.90;;;;;;5026633;28;20489;-51
2022/12/13 01:01:21;;;;;;;22.57;12.73;;;-6.50;99.90;;;;;;5024671;28;20465;-50
2022/12/13 01:03:49;;;;;;;20.43;12.80;;;-6.50;99.90;;;;;;5022855;28;20453;-49
2022/12/13 01:06:20;;;;;;;21.13;11.50;;;-6.50;99.90;;;;;;5026180;28;20489;-51
2022/12/13 01:08:47;;;;;;;24.83;12.80;;;-6.60;99.90;;;;;;5029899;28;20460;-51
2022/12/13 01:11:15;;;;;;;32.87;13.93;;;-6.50;99.90;;;;;;5023121;28;20462;-50
2022/12/13 01:13:42;;;;;;;25.43;12.73;;;-6.60;99.90;;;;;;5021358;28;20461;-50
2022/12/13 01:16:11;;;;;;;25.57;12.77;;;-6.50;99.90;;;;;;5023657;28;20485;-49
2022/12/13 01:18:39;;;;;;;25.20;11.63;;;-6.60;99.90;;;;;;5027471;28;20466;-50
2022/12/13 01:21:11;;;;;;;22.63;12.33;;;-6.50;99.90;;;;;;5023843;28;20462;-50
2022/12/13 01:23:38;;;;;;;27.03;12.23;;;-6.60;99.90;;;;;;5026853;28;20478;-49
2022/12/13 01:26:08;;;;;;;22.27;12.65;;;-6.60;99.90;;;;;;5027018;28;20970;-50
2022/12/13 01:28:36;;;;;;;26.13;13.13;;;-6.70;99.90;;;;;;5030655;28;20211;-49
2022/12/13 01:31:06;;;;;;;22.80;13.50;;;-6.70;99.90;;;;;;5011300;28;20450;-49
2022/12/13 01:33:33;;;;;;;28.60;13.73;;;-6.70;99.90;;;;;;5013867;28;20473;-50
2022/12/13 01:36:01;;;;;;;21.10;11.87;;;-6.80;99.90;;;;;;5028300;28;20472;-50
2022/12/13 01:38:30;;;;;;;18.90;12.40;;;-6.80;99.90;;;;;;5028869;28;20469;-50
2022/12/13 01:40:57;;;;;;;20.40;12.60;;;-6.70;99.90;;;;;;5030716;28;20445;-49
2022/12/13 01:43:26;;;;;;;18.97;11.70;;;-6.80;99.90;;;;;;5027717;28;20485;-49
2022/12/13 01:45:53;;;;;;;22.43;12.87;;;-6.80;99.90;;;;;;5021340;28;20481;-50
2022/12/13 01:48:24;;;;;;;25.27;13.17;;;-6.80;99.90;;;;;;5032465;28;20834;-50
2022/12/13 01:50:55;;;;;;;17.43;12.03;;;-6.80;99.90;;;;;;5030810;28;20460;-50
2022/12/13 01:53:27;;;;;;;25.13;11.63;;;-6.70;99.90;;;;;;5028396;28;20535;-49
2022/12/13 01:56:01;;;;;;;24.40;13.33;;;-6.70;99.90;;;;;;5031116;28;20457;-49
2022/12/13 01:58:28;;;;;;;23.93;12.97;;;-6.70;99.90;;;;;;5031290;28;20564;-50
2022/12/13 02:00:56;;;;;;;21.70;11.70;;;-6.70;99.90;;;;;;5034481;28;20842;-50
2022/12/13 02:03:23;;;;;;;27.67;13.57;;;-6.80;99.90;;;;;;5032311;28;20460;-50
2022/12/13 02:05:56;;;;;;;20.73;12.23;;;-6.80;99.90;;;;;;5032998;28;20485;-50
2022/12/13 02:08:24;;;;;;;27.10;12.83;;;-6.70;99.90;;;;;;5031657;28;20472;-50
2022/12/13 02:10:51;;;;;;;20.23;11.60;;;-6.70;99.90;;;;;;5033763;28;20449;-50
2022/12/13 02:13:20;;;;;;;19.07;10.83;;;-6.70;99.90;;;;;;5033109;28;20461;-50
2022/12/13 02:15:58;;;;;;;21.70;12.17;;;-6.70;99.90;;;;;;5031207;28;20507;-50
2022/12/13 02:18:41;;;;;;;20.27;11.13;;;-6.70;99.90;;;;;;5032097;28;20482;-49
2022/12/13 02:21:21;;;;;;;24.80;11.50;;;-6.70;99.90;;;;;;5030552;28;20473;-51
2022/12/13 02:24:22;;;;;;;20.10;11.90;;;-6.70;99.90;;;;;;5032966;28;20858;-49
2022/12/13 02:27:09;;;;;;;21.63;12.90;;;-6.80;99.90;;;;;;5029870;28;20489;-50
2022/12/13 02:30:18;;;;;;;19.83;11.50;;;-6.80;99.90;;;;;;5032372;28;20449;-49
2022/12/13 02:33:06;;;;;;;24.40;12.20;;;-6.80;99.90;;;;;;5030721;28;20464;-50
2022/12/13 02:35:40;;;;;;;18.17;10.97;;;-6.70;99.90;;;;;;5028282;28;20827;-50
2022/12/13 02:38:14;;;;;;;18.57;11.50;;;-6.70;99.90;;;;;;5028182;28;20488;-50
2022/12/13 02:40:46;;;;;;;17.13;11.73;;;-6.70;99.90;;;;;;5031800;28;20462;-50
2022/12/13 02:43:18;;;;;;;22.97;11.20;;;-6.80;99.90;;;;;;5031121;28;20555;-51
2022/12/13 02:45:47;;;;;;;18.93;11.07;;;-6.80;99.90;;;;;;5022293;28;20468;-49
2022/12/13 02:48:19;;;;;;;21.73;12.83;;;-6.70;99.90;;;;;;5031421;28;20548;-51
2022/12/13 02:50:48;;;;;;;16.50;10.27;;;-6.80;99.90;;;;;;5030253;28;20464;-50
2022/12/13 02:53:16;;;;;;;20.23;12.00;;;-6.80;99.90;;;;;;5027874;28;20892;-49
2022/12/13 02:55:43;;;;;;;20.23;11.13;;;-6.80;99.90;;;;;;5030261;28;20548;-50
2022/12/13 02:58:13;;;;;;;20.03;11.57;;;-6.80;99.90;;;;;;5030758;28;20453;-50
2022/12/13 03:00:51;;;;;;;22.73;11.47;;;-6.80;99.90;;;;;;5032466;28;20446;-48
2022/12/13 03:03:32;;;;;;;22.07;11.87;;;-6.80;99.90;;;;;;5025788;28;20492;-50
2022/12/13 03:06:31;;;;;;;17.80;10.77;;;-6.80;99.90;;;;;;5025536;28;20577;-49
2022/12/13 03:09:10;;;;;;;25.47;12.97;;;-6.80;99.90;;;;;;5030727;28;20442;-50
2022/12/13 03:15:00;;;;;;;21.53;11.83;;;-6.80;99.90;;;;;;5017956;28;20807;-50
2022/12/13 03:17:29;;;;;;;21.40;12.10;;;-6.80;99.90;;;;;;5028704;28;20531;-50
2022/12/13 03:19:58;;;;;;;20.97;11.67;;;-6.80;99.90;;;;;;5030023;28;20511;-49
2022/12/13 03:22:25;;;;;;;20.53;13.10;;;-6.70;99.90;;;;;;5028864;28;20465;-50
2022/12/13 03:24:52;;;;;;;21.20;12.00;;;-6.70;99.90;;;;;;5029349;28;20951;-50
2022/12/13 03:27:19;;;;;;;15.70;10.57;;;-6.80;99.90;;;;;;5028094;28;20573;-50
2022/12/13 03:29:46;;;;;;;17.63;10.33;;;-6.80;99.90;;;;;;5012331;28;20508;-50
2022/12/13 03:32:13;;;;;;;21.37;10.80;;;-6.80;99.90;;;;;;5019612;28;20545;-51
2022/12/13 03:34:44;;;;;;;15.47;11.03;;;-6.80;99.90;;;;;;5025205;28;20458;-50
2022/12/13 03:37:12;;;;;;;19.97;12.33;;;-6.70;99.90;;;;;;5030288;28;20495;-51
2022/12/13 03:39:43;;;;;;;19.67;11.73;;;-6.70;99.90;;;;;;5028679;28;20441;-51
2022/12/13 03:42:10;;;;;;;17.17;10.47;;;-6.80;99.90;;;;;;5030852;28;20508;-50
2022/12/13 03:44:37;;;;;;;19.13;11.27;;;-6.80;99.90;;;;;;5024973;28;20878;-49
2022/12/13 03:47:04;;;;;;;19.33;12.07;;;-6.80;99.90;;;;;;5031832;28;20493;-50
2022/12/13 03:49:31;;;;;;;22.20;11.43;;;-6.80;99.90;;;;;;5031860;28;20854;-51
2022/12/13 03:51:58;;;;;;;17.80;10.43;;;-6.90;99.90;;;;;;5029354;28;20468;-50
2022/12/13 03:54:26;;;;;;;18.47;10.77;;;-6.90;99.90;;;;;;5027750;28;20460;-52
2022/12/13 03:56:53;;;;;;;21.60;10.20;;;-6.90;99.90;;;;;;5029232;28;21002;-49
2022/12/13 03:59:20;;;;;;;17.20;10.67;;;-6.90;99.90;;;;;;5031740;28;20516;-50
2022/12/13 04:01:47;;;;;;;13.50;8.67;;;-6.90;99.90;;;;;;5030398;28;21007;-50
2022/12/13 04:04:14;;;;;;;13.13;9.20;;;-6.90;99.90;;;;;;5027489;28;20489;-50
2022/12/13 04:06:41;;;;;;;15.67;9.07;;;-6.80;99.90;;;;;;5031135;28;20489;-50
2022/12/13 04:09:08;;;;;;;9.23;4.87;;;-6.80;99.90;;;;;;5030069;28;20465;-51
2022/12/13 04:14:20;;;;;;;5.77;3.90;;;-6.70;99.90;;;;;;5021212;28;20587;-51
2022/12/13 04:16:47;;;;;;;5.23;3.77;;;-6.80;99.90;;;;;;5031221;28;20525;-51
2022/12/13 04:19:14;;;;;;;5.97;2.90;;;-6.80;99.90;;;;;;5027769;28;20913;-50
2022/12/13 04:21:41;;;;;;;7.10;2.37;;;-6.80;99.90;;;;;;5027572;28;20534;-51
2022/12/13 04:24:08;;;;;;;7.53;4.23;;;-6.80;99.90;;;;;;5028623;28;20472;-50
2022/12/13 04:26:37;;;;;;;6.40;3.27;;;-6.70;99.90;;;;;;5031274;28;20975;-51
2022/12/13 04:29:04;;;;;;;4.70;2.67;;;-6.80;99.90;;;;;;5031502;28;20453;-50
2022/12/13 04:31:31;;;;;;;5.27;3.30;;;-6.80;99.90;;;;;;5026416;28;20849;-51
2022/12/13 04:33:58;;;;;;;4.33;2.77;;;-6.80;99.90;;;;;;5024285;28;20453;-50
2022/12/13 04:36:25;;;;;;;3.03;2.70;;;-6.80;99.90;;;;;;5028870;28;20530;-50
2022/12/13 04:38:52;;;;;;;2.70;2.50;;;-6.80;99.90;;;;;;5027488;28;20461;-50
2022/12/13 04:41:19;;;;;;;3.10;2.73;;;-6.90;99.90;;;;;;5027000;28;20441;-49
2022/12/13 04:43:53;;;;;;;7.80;3.20;;;-6.90;99.90;;;;;;5030429;28;20445;-49
2022/12/13 04:46:21;;;;;;;2.80;2.17;;;-6.90;99.90;;;;;;5028650;28;20489;-50
2022/12/13 04:48:48;;;;;;;3.30;2.37;;;-6.90;99.90;;;;;;5031309;28;20476;-50
2022/12/13 04:51:16;;;;;;;2.43;2.03;;;-6.80;99.90;;;;;;5031446;28;20457;-50
2022/12/13 04:53:43;;;;;;;4.40;2.70;;;-6.90;99.90;;;;;;5030260;28;20453;-49
2022/12/13 04:56:10;;;;;;;6.57;2.80;;;-6.90;99.90;;;;;;5022385;28;20492;-50
2022/12/13 04:58:37;;;;;;;10.07;3.80;;;-6.90;99.90;;;;;;5028422;28;20986;-50
2022/12/13 05:01:08;;;;;;;15.20;6.47;;;-6.80;99.90;;;;;;5019987;28;20488;-50
2022/12/13 05:03:35;;;;;;;13.53;6.07;;;-6.80;99.90;;;;;;5023958;28;20458;-51
2022/12/13 05:06:06;;;;;;;13.87;5.70;;;-6.80;99.90;;;;;;5025556;28;20457;-50
2022/12/13 05:08:33;;;;;;;8.00;4.17;;;-6.80;99.90;;;;;;5026472;28;20446;-49
2022/12/13 05:11:00;;;;;;;5.30;3.73;;;-6.80;99.90;;;;;;5020975;28;20535;-50
2022/12/13 05:13:27;;;;;;;11.07;4.00;;;-6.80;99.90;;;;;;5030473;28;20471;-49
2022/12/13 05:15:56;;;;;;;6.73;3.73;;;-6.80;99.90;;;;;;5025779;28;20951;-51
2022/12/13 05:18:25;;;;;;;6.77;4.00;;;-6.90;99.90;;;;;;5021966;28;20493;-51
2022/12/13 05:20:52;;;;;;;7.63;3.40;;;-6.70;99.90;;;;;;5022906;28;21059;-52
2022/12/13 05:23:21;;;;;;;5.63;2.80;;;-6.80;99.90;;;;;;5034033;28;21357;-50
2022/12/13 05:25:49;;;;;;;6.67;3.20;;;-6.80;99.90;;;;;;5033509;28;20484;-50
2022/12/13 05:28:16;;;;;;;8.83;5.03;;;-6.80;99.90;;;;;;5029893;28;20488;-50
2022/12/13 05:30:43;;;;;;;7.63;4.60;;;-6.90;99.90;;;;;;5034381;28;20464;-50
2022/12/13 05:33:10;;;;;;;9.67;5.47;;;-6.90;99.90;;;;;;5029896;28;20446;-50
2022/12/13 05:35:39;;;;;;;7.63;4.73;;;-6.90;99.90;;;;;;5029858;28;20836;-53
2022/12/13 05:38:07;;;;;;;14.13;5.57;;;-6.90;99.90;;;;;;5031740;28;20469;-50
2022/12/13 05:40:34;;;;;;;8.77;5.97;;;-6.90;99.90;;;;;;5034294;28;20476;-50
2022/12/13 05:43:01;;;;;;;10.53;7.00;;;-7.00;99.90;;;;;;5015235;28;20457;-50
2022/12/13 05:45:29;;;;;;;9.70;6.97;;;-7.00;99.90;;;;;;5032908;28;20546;-50
2022/12/13 05:47:56;;;;;;;17.20;7.17;;;-6.90;99.90;;;;;;5033913;28;20996;-51
2022/12/13 05:50:24;;;;;;;11.97;6.23;;;-7.00;99.90;;;;;;5034276;28;20457;-50
2022/12/13 05:52:53;;;;;;;8.77;5.93;;;-7.00;99.90;;;;;;5034228;28;20442;-50
2022/12/13 05:55:20;;;;;;;10.83;6.03;;;-7.00;99.90;;;;;;5032383;28;20468;-50
2022/12/13 05:57:47;;;;;;;9.93;6.60;;;-6.90;99.90;;;;;;5031294;28;20530;-49
2022/12/13 06:00:15;;;;;;;10.10;7.13;;;-6.80;99.90;;;;;;5027114;28;20499;-52
2022/12/13 06:02:44;;;;;;;19.90;7.93;;;-6.80;99.90;;;;;;5031447;28;20564;-51
2022/12/13 06:05:11;;;;;;;15.77;7.27;;;-6.80;99.90;;;;;;5030714;28;20497;-49
2022/12/13 06:07:39;;;;;;;14.33;6.80;;;-6.70;99.90;;;;;;5032265;28;20539;-51
2022/12/13 06:10:08;;;;;;;13.43;7.53;;;-6.60;99.90;;;;;;5033655;28;20475;-50
2022/12/13 06:12:36;;;;;;;13.27;8.00;;;-6.70;99.90;;;;;;5033856;28;20858;-50
2022/12/13 06:15:05;;;;;;;20.80;8.33;;;-6.70;99.90;;;;;;5033476;28;20507;-50
2022/12/13 06:17:32;;;;;;;13.67;8.20;;;-6.80;99.90;;;;;;5032508;28;20504;-50
2022/12/13 06:19:59;;;;;;;13.13;7.30;;;-6.80;99.90;;;;;;5033872;28;20453;-50
2022/12/13 06:22:26;;;;;;;15.97;8.03;;;-6.80;99.90;;;;;;5033425;28;20453;-50
2022/12/13 06:24:53;;;;;;;17.17;7.53;;;-6.90;99.90;;;;;;5032578;28;20519;-51
2022/12/13 06:27:24;;;;;;;10.00;6.13;;;-6.90;99.90;;;;;;5033442;28;21157;-50
2022/12/13 06:29:51;;;;;;;14.97;6.10;;;-6.90;99.90;;;;;;5034160;28;20441;-49
2022/12/13 06:32:18;;;;;;;14.90;7.07;;;-6.90;99.90;;;;;;5033299;28;20493;-49
2022/12/13 06:34:45;;;;;;;12.73;6.67;;;-7.00;99.90;;;;;;5031025;28;20464;-49
2022/12/13 06:37:14;;;;;;;13.33;8.40;;;-7.00;99.90;;;;;;5033505;28;20469;-49
2022/12/13 06:39:41;;;;;;;19.13;8.67;;;-7.00;99.90;;;;;;5033621;28;20477;-50
2022/12/13 06:42:14;;;;;;;14.37;7.87;;;-7.00;99.90;;;;;;5028520;28;20442;-51
2022/12/13 06:44:45;;;;;;;11.90;7.50;;;-6.90;99.90;;;;;;5030951;28;20449;-50
2022/12/13 06:47:12;;;;;;;10.77;6.73;;;-6.90;99.90;;;;;;5034654;28;20551;-51
2022/12/13 06:49:46;;;;;;;10.90;6.37;;;-6.90;99.90;;;;;;5046382;28;20457;-50
2022/12/13 06:52:14;;;;;;;8.67;6.50;;;-6.90;99.90;;;;;;5041755;28;20450;-50
2022/12/13 06:54:44;;;;;;;10.57;5.57;;;-6.90;99.90;;;;;;5044885;28;20602;-51
2022/12/13 06:57:12;;;;;;;10.80;5.73;;;-6.90;99.90;;;;;;5045448;28;20500;-51
2022/12/13 06:59:45;;;;;;;9.50;6.17;;;-6.90;99.90;;;;;;5044987;28;20480;-51
2022/12/13 07:02:12;;;;;;;9.93;6.07;;;-6.90;99.90;;;;;;5025354;28;20529;-50
2022/12/13 07:04:42;;;;;;;14.57;6.10;;;-6.90;99.90;;;;;;5019330;28;20511;-50
2022/12/13 07:07:09;;;;;;;8.03;4.33;;;-6.80;99.90;;;;;;5029561;28;20493;-50
2022/12/13 07:09:37;;;;;;;7.93;5.17;;;-6.80;99.90;;;;;;5031224;28;20445;-50
2022/12/13 07:12:04;;;;;;;8.40;5.23;;;-6.70;99.90;;;;;;5032878;28;20511;-49
2022/12/13 07:14:31;;;;;;;8.50;4.93;;;-6.70;99.90;;;;;;5038903;28;20440;-49
2022/12/13 07:17:19;;;;;;;9.37;5.20;;;-6.60;99.90;;;;;;5026699;28;20513;-48
2022/12/13 07:19:47;;;;;;;14.40;6.10;;;-6.60;99.90;;;;;;5022647;28;20458;-50
2022/12/13 07:22:15;;;;;;;8.80;5.40;;;-6.50;99.90;;;;;;5031438;28;20464;-49
2022/12/13 07:24:53;;;;;;;10.77;5.77;;;-6.50;99.90;;;;;;5026872;28;20480;-48
2022/12/13 07:27:20;;;;;;;6.83;5.70;;;-6.40;99.90;;;;;;5016719;28;20543;-50
2022/12/13 07:29:47;;;;;;;11.37;6.13;;;-6.40;99.90;;;;;;5028613;28;20545;-49
2022/12/13 07:32:16;;;;;;;6.87;4.70;;;-6.30;99.90;;;;;;5027772;28;20445;-50
2022/12/13 07:34:43;;;;;;;11.03;5.57;;;-6.20;99.90;;;;;;5029123;28;20461;-51
2022/12/13 07:37:10;;;;;;;5.57;4.27;;;-6.20;99.90;;;;;;5023542;28;20909;-49
2022/12/13 07:39:37;;;;;;;8.13;5.10;;;-6.10;99.90;;;;;;5027887;28;20527;-49
2022/12/13 07:42:04;;;;;;;5.93;4.47;;;-6.10;99.90;;;;;;5022483;28;20534;-49
2022/12/13 07:44:31;;;;;;;5.80;4.67;;;-6.00;99.90;;;;;;5028556;28;20520;-49
2022/12/13 07:46:58;;;;;;;9.57;4.77;;;-5.90;99.90;;;;;;5022608;28;20482;-49
2022/12/13 07:49:27;;;;;;;5.83;4.13;;;-5.80;99.90;;;;;;5031556;28;20441;-50
2022/12/13 07:51:54;;;;;;;6.93;4.23;;;-5.80;99.90;;;;;;5031215;28;20500;-49
2022/12/13 07:54:21;;;;;;;7.90;4.30;;;-5.70;99.90;;;;;;5027625;28;20516;-49
2022/12/13 07:56:48;;;;;;;7.43;4.23;;;-5.60;99.90;;;;;;5029168;28;20595;-50
2022/12/13 07:59:15;;;;;;;5.37;3.80;;;-5.40;99.90;;;;;;5030650;28;20488;-49
2022/12/13 08:01:42;;;;;;;7.40;3.40;;;-5.40;99.90;;;;;;5031784;28;20438;-50
2022/12/13 08:04:09;;;;;;;7.50;4.20;;;-5.30;99.90;;;;;;5031226;28;20437;-50
2022/12/13 08:06:38;;;;;;;8.80;3.63;;;-5.20;99.90;;;;;;5024417;28;20512;-49
2022/12/13 08:09:05;;;;;;;5.27;4.17;;;-5.10;99.90;;;;;;5030342;28;20926;-50
2022/12/13 08:11:33;;;;;;;7.07;4.60;;;-5.00;99.90;;;;;;5031611;28;20940;-49
2022/12/13 08:14:00;;;;;;;5.10;4.03;;;-5.00;99.90;;;;;;5031106;28;20456;-51
2022/12/13 08:16:27;;;;;;;7.83;4.40;;;-4.80;99.90;;;;;;5028955;28;20494;-49
2022/12/13 08:18:54;;;;;;;8.37;5.80;;;-4.70;99.90;;;;;;5031539;28;20445;-49
2022/12/13 08:21:21;;;;;;;7.97;5.17;;;-4.60;99.90;;;;;;5031710;28;20504;-49
2022/12/13 08:23:49;;;;;;;10.73;5.53;;;-4.50;99.90;;;;;;5030698;28;20512;-50
2022/12/13 08:26:16;;;;;;;7.93;4.90;;;-4.40;99.90;;;;;;5029529;28;20485;-50
2022/12/13 08:28:43;;;;;;;5.53;4.40;;;-4.40;99.90;;;;;;5033085;28;20894;-50
2022/12/13 08:31:13;;;;;;;7.37;4.33;;;-4.20;99.90;;;;;;5022122;28;21036;-50
2022/12/13 08:33:42;;;;;;;6.47;5.43;;;-4.20;99.90;;;;;;5030475;28;20497;-49
2022/12/13 08:36:10;;;;;;;4.30;3.63;;;-4.20;99.90;;;;;;5028015;28;20581;-50
2022/12/13 08:38:38;;;;;;;6.93;3.83;;;-4.10;99.90;;;;;;5031408;28;20438;-50
2022/12/13 08:41:07;;;;;;;6.03;4.60;;;-4.00;99.90;;;;;;5031477;28;20495;-50
2022/12/13 08:43:34;;;;;;;7.90;4.75;;;-3.90;99.90;;;;;;5020714;28;20533;-49
2022/12/13 08:46:02;;;;;;;7.27;4.07;;;-3.80;99.90;;;;;;5023739;28;20265;-50
2022/12/13 08:48:29;;;;;;;6.60;4.10;;;-3.90;99.90;;;;;;5030874;28;20483;-50
2022/12/13 08:51:01;;;;;;;8.03;4.03;;;-3.80;99.90;;;;;;5030979;28;20454;-48
2022/12/13 08:53:28;;;;;;;5.13;3.70;;;-3.90;99.90;;;;;;5029959;28;20477;-50
2022/12/13 08:55:59;;;;;;;4.03;3.50;;;-4.00;99.90;;;;;;5030332;28;20850;-50
2022/12/13 08:58:27;;;;;;;5.43;2.77;;;-3.90;99.90;;;;;;5035306;28;21009;-49
2022/12/13 09:00:54;;;;;;;3.73;3.40;;;-4.00;99.90;;;;;;5034402;28;20449;-49
2022/12/13 09:03:21;;;;;;;3.30;2.93;;;-4.00;99.90;;;;;;5034369;28;20568;-50
2022/12/13 09:05:48;;;;;;;4.93;3.43;;;-4.00;99.90;;;;;;5033944;28;21009;-50
2022/12/13 09:08:15;;;;;;;8.30;3.50;;;-4.10;99.90;;;;;;5034770;28;20477;-49
2022/12/13 09:10:43;;;;;;;8.97;3.63;;;-4.00;99.90;;;;;;5034641;28;20453;-50
2022/12/13 09:13:10;;;;;;;5.83;3.70;;;-3.90;99.90;;;;;;5034179;28;20954;-51
2022/12/13 09:15:39;;;;;;;9.80;5.47;;;-3.90;99.90;;;;;;5033846;28;20475;-49
2022/12/13 09:18:06;;;;;;;12.63;4.07;;;-3.80;99.90;;;;;;5021260;28;20563;-50
2022/12/13 09:20:34;;;;;;;6.60;3.83;;;-3.90;99.90;;;;;;5030824;28;20449;-49
2022/12/13 09:23:03;;;;;;;5.47;4.57;;;-3.80;99.90;;;;;;5034132;28;20452;-48
2022/12/13 09:25:31;;;;;;;8.60;4.17;;;-3.80;99.90;;;;;;5033402;28;20516;-49
2022/12/13 09:28:00;;;;;;;7.67;4.70;;;-3.80;99.90;;;;;;5034437;28;20510;-50
2022/12/13 09:30:28;;;;;;;12.80;5.00;;;-3.80;99.90;;;;;;5034410;28;20540;-50
2022/12/13 09:32:57;;;;;;;12.33;5.97;;;-3.70;99.90;;;;;;5034264;28;20527;-50
2022/12/13 09:35:24;;;;;;;10.93;5.07;;;-3.70;99.90;;;;;;5034054;28;20452;-50
2022/12/13 09:37:51;;;;;;;5.50;4.30;;;-3.50;99.90;;;;;;5025248;28;21079;-49
2022/12/13 09:40:23;;;;;;;15.20;5.30;;;-3.50;99.90;;;;;;5025559;28;20466;-51
2022/12/13 09:42:53;;;;;;;7.90;5.27;;;-3.50;99.90;;;;;;5034305;28;20958;-49
2022/12/13 09:45:21;;;;;;;9.27;5.27;;;-3.50;99.90;;;;;;5024362;28;20971;-49
2022/12/13 09:47:49;;;;;;;8.00;4.90;;;-3.50;99.90;;;;;;5031271;28;20535;-51
2022/12/13 09:50:24;;;;;;;8.10;4.77;;;-3.50;99.90;;;;;;5033866;28;20862;-50
2022/12/13 09:52:51;;;;;;;9.43;5.00;;;-3.40;99.90;;;;;;5034211;28;20449;-49
2022/12/13 09:55:23;;;;;;;7.90;5.30;;;-3.30;99.90;;;;;;5032600;28;20517;-50
2022/12/13 09:57:51;;;;;;;10.83;5.53;;;-3.10;99.90;;;;;;5031704;28;20478;-48
2022/12/13 10:00:20;;;;;;;13.63;8.27;;;-3.00;99.90;;;;;;5028736;28;20459;-50
2022/12/13 10:02:49;;;;;;;8.80;6.10;;;-2.90;99.90;;;;;;5033774;28;20504;-51
2022/12/13 10:05:25;;;;;;;5.43;4.93;;;-2.80;99.90;;;;;;5033190;28;21013;-50
2022/12/13 10:07:54;;;;;;;7.13;5.77;;;-2.60;99.90;;;;;;5022160;28;20481;-51
2022/12/13 10:10:22;;;;;;;6.53;5.53;;;-2.40;99.90;;;;;;5033768;28;20450;-50
2022/12/13 10:12:54;;;;;;;8.47;5.27;;;-2.20;99.90;;;;;;5033498;28;20453;-49
2022/12/13 10:15:22;;;;;;;6.33;5.27;;;-2.20;99.90;;;;;;5032785;28;20503;-49
2022/12/13 10:17:50;;;;;;;10.83;6.27;;;-2.10;99.90;;;;;;5024397;28;20482;-50
2022/12/13 10:20:20;;;;;;;9.47;5.43;;;-2.30;99.90;;;;;;5028810;28;20524;-49
2022/12/13 10:22:48;;;;;;;8.53;5.30;;;-2.30;99.90;;;;;;5026690;28;20474;-50
2022/12/13 10:25:15;;;;;;;5.67;4.83;;;-2.20;99.90;;;;;;5031582;28;21215;-49
2022/12/13 10:27:44;;;;;;;8.63;5.70;;;-2.00;99.90;;;;;;5033633;28;20569;-51
2022/12/13 10:30:14;;;;;;;6.07;5.17;;;-1.90;99.90;;;;;;5033449;28;20453;-49
2022/12/13 10:32:52;;;;;;;6.87;5.93;;;-2.00;99.90;;;;;;5032101;28;20207;-50
2022/12/13 10:35:27;;;;;;;8.50;6.17;;;-2.20;99.90;;;;;;5032671;28;21017;-51
2022/12/13 10:37:55;;;;;;;8.77;5.80;;;-2.00;99.90;;;;;;5033325;28;20227;-50
2022/12/13 10:40:30;;;;;;;15.53;6.77;;;-2.00;99.90;;;;;;5033138;28;20473;-50
2022/12/13 10:43:16;;;;;;;11.90;6.77;;;-2.10;99.90;;;;;;5032355;28;20219;-50
2022/12/13 10:45:44;;;;;;;7.73;6.40;;;-2.00;99.90;;;;;;5024286;28;20505;-51
2022/12/13 10:48:20;;;;;;;12.60;6.63;;;-2.10;99.90;;;;;;5032950;28;20879;-50
2022/12/13 10:51:00;;;;;;;14.20;7.00;;;-2.00;99.90;;;;;;5033023;28;20473;-49
2022/12/13 10:53:31;;;;;;;9.63;6.23;;;-2.00;99.90;;;;;;5031353;28;21016;-49
2022/12/13 10:55:59;;;;;;;9.37;6.43;;;-2.10;99.90;;;;;;5024905;28;20590;-49
2022/12/13 10:58:35;;;;;;;10.40;6.83;;;-2.10;99.90;;;;;;5032822;28;20936;-49
2022/12/13 11:01:14;;;;;;;11.53;6.70;;;-2.10;99.90;;;;;;5032017;28;20913;-49
2022/12/13 11:03:41;;;;;;;8.87;6.33;;;-2.10;99.90;;;;;;5031060;28;20223;-50
2022/12/13 11:06:13;;;;;;;13.90;6.10;;;-2.00;99.90;;;;;;5032460;28;20252;-50
2022/12/13 11:08:41;;;;;;;8.13;6.00;;;-2.00;99.90;;;;;;5012738;28;20222;-49
2022/12/13 11:11:09;;;;;;;11.23;6.33;;;-2.00;99.90;;;;;;5012668;28;20294;-49
2022/12/13 11:13:54;;;;;;;10.97;7.07;;;-1.90;99.90;;;;;;5027753;28;20214;-51
2022/12/13 11:16:24;;;;;;;9.53;6.20;;;-2.00;99.90;;;;;;5032233;28;20569;-51
2022/12/13 11:18:54;;;;;;;11.63;5.73;;;-2.00;99.90;;;;;;5031796;28;20208;-50
2022/12/13 11:21:26;;;;;;;9.83;6.80;;;-1.90;99.90;;;;;;5032353;28;20447;-51
2022/12/13 11:23:55;;;;;;;7.33;6.40;;;-1.80;99.90;;;;;;5028363;28;20210;-51
2022/12/13 11:26:25;;;;;;;11.73;7.33;;;-1.80;99.90;;;;;;5030439;28;20992;-52
2022/12/13 11:29:09;;;;;;;11.03;7.17;;;-1.90;99.90;;;;;;5029036;28;20221;-49
2022/12/13 11:31:46;;;;;;;15.30;7.00;;;-2.00;99.90;;;;;;5030633;28;20203;-50
2022/12/13 11:34:24;;;;;;;12.23;7.77;;;-1.90;99.90;;;;;;5011723;28;20909;-50
2022/12/13 11:36:58;;;;;;;13.40;6.83;;;-1.80;99.90;;;;;;5012834;28;20503;-49
2022/12/13 11:39:30;;;;;;;10.13;7.47;;;-1.80;99.90;;;;;;5024443;28;20461;-51
2022/12/13 11:42:01;;;;;;;10.20;6.60;;;-1.80;99.90;;;;;;5027301;28;20195;-51
2022/12/13 11:44:38;;;;;;;10.70;8.30;;;-1.80;99.90;;;;;;5031088;28;20209;-50
2022/12/13 11:47:13;;;;;;;10.40;8.00;;;-1.70;99.90;;;;;;5030933;28;20218;-50
2022/12/13 11:49:46;;;;;;;9.90;7.70;;;-1.80;99.90;;;;;;5031729;28;20608;-50
2022/12/13 11:52:21;;;;;;;14.20;8.50;;;-1.70;99.90;;;;;;5023266;28;20633;-49
2022/12/13 11:54:54;;;;;;;11.07;8.60;;;-1.70;99.90;;;;;;5031243;28;20194;-51
2022/12/13 11:57:42;;;;;;;18.60;9.90;;;-1.60;99.90;;;;;;5030546;28;20701;-50
2022/12/13 12:00:27;;;;;;;9.97;8.50;;;-1.70;99.90;;;;;;5026914;28;20195;-49
2022/12/13 12:02:59;;;;;;;13.30;10.17;;;-1.80;99.90;;;;;;5030412;28;20258;-48
2022/12/13 12:05:30;;;;;;;15.13;9.33;;;-1.60;99.90;;;;;;5031338;28;20207;-49
2022/12/13 12:08:04;;;;;;;14.03;8.80;;;-1.70;99.90;;;;;;5027262;28;20218;-49
2022/12/13 12:10:37;;;;;;;15.27;9.33;;;-1.80;99.90;;;;;;5031464;28;20486;-49
2022/12/13 12:13:10;;;;;;;16.90;10.40;;;-2.10;99.90;;;;;;5055146;22;20492;-51
2022/12/13 12:15:46;;;;;;;13.57;9.47;;;-2.20;99.90;;;;;;5050779;28;20225;-52
2022/12/13 12:18:15;;;;;;;20.30;10.97;;;-2.20;99.90;;;;;;5048195;28;20232;-52
2022/12/13 12:20:54;;;;;;;11.93;9.27;;;-2.20;99.90;;;;;;5049973;28;20528;-51
2022/12/13 12:23:39;;;;;;;18.47;9.80;;;-2.40;99.90;;;;;;5050000;28;20467;-52
2022/12/13 12:26:08;;;;;;;14.53;9.80;;;-2.40;99.90;;;;;;5050636;28;20468;-51
2022/12/13 12:28:57;;;;;;;17.83;11.47;;;-2.50;99.90;;;;;;5048653;28;20476;-51
2022/12/13 12:31:32;;;;;;;16.43;10.37;;;-2.50;99.90;;;;;;5045471;28;20456;-52
2022/12/13 12:34:06;;;;;;;15.00;9.67;;;-2.30;99.90;;;;;;5049829;28;20543;-51
2022/12/13 12:36:47;;;;;;;18.87;10.23;;;-2.40;99.90;;;;;;5050536;28;20501;-51
2022/12/13 12:39:46;;;;;;;12.93;9.63;;;-2.30;99.90;;;;;;5047258;28;20457;-51
2022/12/13 12:42:38;;;;;;;18.43;10.03;;;-2.20;99.90;;;;;;5049389;28;20466;-52
2022/12/13 12:45:17;;;;;;;11.63;9.10;;;-2.20;99.90;;;;;;5049803;28;20799;-51
2022/12/13 12:47:55;;;;;;;15.70;9.53;;;-2.20;99.90;;;;;;5049399;28;21105;-51
2022/12/13 12:50:36;;;;;;;13.53;9.47;;;-2.10;99.90;;;;;;5051191;28;20476;-51
2022/12/13 12:53:14;;;;;;;14.07;8.80;;;-2.10;99.90;;;;;;5029521;28;20869;-52
2022/12/13 12:55:52;;;;;;;14.47;10.40;;;-2.20;99.90;;;;;;5030194;28;20448;-51
2022/12/13 12:58:27;;;;;;;16.87;9.33;;;-2.20;99.90;;;;;;5040471;28;20466;-51
2022/12/13 13:01:05;;;;;;;16.53;10.43;;;-2.10;99.90;;;;;;5049094;28;20527;-51